sensor_id;sensor_type;location;lat;lon;timestamp;P1;durP1;ratioP1;P2;durP2;ratioP2
57573;SDS011;68988;49.000;21.242;2023-04-03T00:00:02;0.47;;;0.40;;
57573;SDS011;68988;49.000;21.242;2023-04-03T00:02:28;0.50;;;0.50;;
57573;SDS011;68988;49.000;21.242;2023-04-03T00:04:53;0.50;;;0.50;;
57573;SDS011;68988;49.000;21.242;2023-04-03T00:07:19;0.40;;;0.40;;
57573;SDS011;68988;49.000;21.242;2023-04-03T00:09:44;0.40;;;0.40;;
57573;SDS011;68988;49.000;21.242;2023-04-03T00:12:10;0.47;;;0.47;;
57573;SDS011;68988;49.000;21.242;2023-04-03T00:14:35;0.38;;;0.35;;
57573;SDS011;68988;49.000;21.242;2023-04-03T00:17:01;0.35;;;0.30;;
57573;SDS011;68988;49.000;21.242;2023-04-03T00:19:26;0.40;;;0.40;;
57573;SDS011;68988;49.000;21.242;2023-04-03T00:21:52;0.30;;;0.30;;
57573;SDS011;68988;49.000;21.242;2023-04-03T00:24:18;0.50;;;0.40;;
57573;SDS011;68988;49.000;21.242;2023-04-03T00:26:44;0.38;;;0.38;;
57573;SDS011;68988;49.000;21.242;2023-04-03T00:29:09;0.50;;;0.50;;
57573;SDS011;68988;49.000;21.242;2023-04-03T00:31:35;0.50;;;0.50;;
57573;SDS011;68988;49.000;21.242;2023-04-03T00:34:00;0.32;;;0.32;;
57573;SDS011;68988;49.000;21.242;2023-04-03T00:36:26;0.38;;;0.38;;
57573;SDS011;68988;49.000;21.242;2023-04-03T00:38:51;0.50;;;0.50;;
57573;SDS011;68988;49.000;21.242;2023-04-03T00:41:17;0.40;;;0.40;;
57573;SDS011;68988;49.000;21.242;2023-04-03T00:43:42;0.40;;;0.40;;
57573;SDS011;68988;49.000;21.242;2023-04-03T00:46:08;0.40;;;0.40;;
57573;SDS011;68988;49.000;21.242;2023-04-03T00:48:41;0.40;;;0.40;;
57573;SDS011;68988;49.000;21.242;2023-04-03T00:51:11;0.40;;;0.40;;
57573;SDS011;68988;49.000;21.242;2023-04-03T00:53:45;0.50;;;0.50;;
57573;SDS011;68988;49.000;21.242;2023-04-03T00:56:13;0.35;;;0.30;;
57573;SDS011;68988;49.000;21.242;2023-04-03T00:58:52;0.40;;;0.40;;
57573;SDS011;68988;49.000;21.242;2023-04-03T01:01:22;0.32;;;0.32;;
57573;SDS011;68988;49.000;21.242;2023-04-03T01:03:50;0.40;;;0.40;;
57573;SDS011;68988;49.000;21.242;2023-04-03T01:06:16;0.30;;;0.30;;
57573;SDS011;68988;49.000;21.242;2023-04-03T01:08:44;0.30;;;0.30;;
57573;SDS011;68988;49.000;21.242;2023-04-03T01:11:11;0.73;;;0.30;;
57573;SDS011;68988;49.000;21.242;2023-04-03T01:13:37;0.40;;;0.40;;
57573;SDS011;68988;49.000;21.242;2023-04-03T01:16:03;0.50;;;0.50;;
57573;SDS011;68988;49.000;21.242;2023-04-03T01:18:30;0.50;;;0.50;;
57573;SDS011;68988;49.000;21.242;2023-04-03T01:26:24;0.30;;;0.30;;
57573;SDS011;68988;49.000;21.242;2023-04-03T01:28:50;0.45;;;0.45;;
57573;SDS011;68988;49.000;21.242;2023-04-03T01:33:50;0.40;;;0.40;;
57573;SDS011;68988;49.000;21.242;2023-04-03T01:36:20;0.50;;;0.50;;
57573;SDS011;68988;49.000;21.242;2023-04-03T01:38:51;0.40;;;0.40;;
57573;SDS011;68988;49.000;21.242;2023-04-03T01:41:17;0.30;;;0.30;;
57573;SDS011;68988;49.000;21.242;2023-04-03T01:43:43;0.50;;;0.50;;
57573;SDS011;68988;49.000;21.242;2023-04-03T01:46:09;0.45;;;0.43;;
57573;SDS011;68988;49.000;21.242;2023-04-03T01:48:35;0.30;;;0.30;;
57573;SDS011;68988;49.000;21.242;2023-04-03T01:51:00;0.50;;;0.50;;
57573;SDS011;68988;49.000;21.242;2023-04-03T01:53:26;0.57;;;0.43;;
57573;SDS011;68988;49.000;21.242;2023-04-03T01:55:51;0.30;;;0.30;;
57573;SDS011;68988;49.000;21.242;2023-04-03T01:58:17;0.30;;;0.30;;
57573;SDS011;68988;49.000;21.242;2023-04-03T02:00:42;0.40;;;0.40;;
57573;SDS011;68988;49.000;21.242;2023-04-03T02:03:07;0.30;;;0.30;;
57573;SDS011;68988;49.000;21.242;2023-04-03T02:05:33;0.30;;;0.30;;
57573;SDS011;68988;49.000;21.242;2023-04-03T02:07:58;0.30;;;0.30;;
57573;SDS011;68988;49.000;21.242;2023-04-03T02:10:24;0.40;;;0.40;;
57573;SDS011;68988;49.000;21.242;2023-04-03T02:12:49;0.32;;;0.32;;
57573;SDS011;68988;49.000;21.242;2023-04-03T02:15:15;0.40;;;0.40;;
57573;SDS011;68988;49.000;21.242;2023-04-03T02:17:41;0.65;;;0.30;;
57573;SDS011;68988;49.000;21.242;2023-04-03T02:20:07;0.30;;;0.30;;
57573;SDS011;68988;49.000;21.242;2023-04-03T02:22:33;0.35;;;0.35;;
57573;SDS011;68988;49.000;21.242;2023-04-03T02:24:58;0.43;;;0.43;;
57573;SDS011;68988;49.000;21.242;2023-04-03T02:27:24;0.43;;;0.43;;
57573;SDS011;68988;49.000;21.242;2023-04-03T02:29:49;0.30;;;0.30;;
57573;SDS011;68988;49.000;21.242;2023-04-03T02:32:15;0.30;;;0.30;;
57573;SDS011;68988;49.000;21.242;2023-04-03T02:34:40;0.30;;;0.30;;
57573;SDS011;68988;49.000;21.242;2023-04-03T02:37:06;0.47;;;0.47;;
57573;SDS011;68988;49.000;21.242;2023-04-03T02:39:31;0.40;;;0.40;;
57573;SDS011;68988;49.000;21.242;2023-04-03T02:41:56;0.40;;;0.40;;
57573;SDS011;68988;49.000;21.242;2023-04-03T02:44:22;0.50;;;0.47;;
57573;SDS011;68988;49.000;21.242;2023-04-03T02:46:48;0.30;;;0.30;;
57573;SDS011;68988;49.000;21.242;2023-04-03T02:49:14;0.30;;;0.30;;
57573;SDS011;68988;49.000;21.242;2023-04-03T02:51:40;0.30;;;0.30;;
57573;SDS011;68988;49.000;21.242;2023-04-03T02:54:06;0.40;;;0.30;;
57573;SDS011;68988;49.000;21.242;2023-04-03T02:56:31;0.40;;;0.40;;
57573;SDS011;68988;49.000;21.242;2023-04-03T02:58:57;0.40;;;0.40;;
57573;SDS011;68988;49.000;21.242;2023-04-03T03:01:22;0.40;;;0.40;;
57573;SDS011;68988;49.000;21.242;2023-04-03T03:03:47;0.30;;;0.30;;
57573;SDS011;68988;49.000;21.242;2023-04-03T03:06:14;0.30;;;0.30;;
57573;SDS011;68988;49.000;21.242;2023-04-03T03:08:41;0.30;;;0.30;;
57573;SDS011;68988;49.000;21.242;2023-04-03T03:11:07;0.30;;;0.30;;
57573;SDS011;68988;49.000;21.242;2023-04-03T03:13:33;0.60;;;0.43;;
57573;SDS011;68988;49.000;21.242;2023-04-03T03:15:59;0.25;;;0.25;;
57573;SDS011;68988;49.000;21.242;2023-04-03T03:18:25;0.30;;;0.30;;
57573;SDS011;68988;49.000;21.242;2023-04-03T03:20:51;0.40;;;0.40;;
57573;SDS011;68988;49.000;21.242;2023-04-03T03:23:18;0.68;;;0.40;;
57573;SDS011;68988;49.000;21.242;2023-04-03T03:25:43;0.30;;;0.30;;
57573;SDS011;68988;49.000;21.242;2023-04-03T03:28:09;0.32;;;0.32;;
57573;SDS011;68988;49.000;21.242;2023-04-03T03:30:34;0.30;;;0.30;;
57573;SDS011;68988;49.000;21.242;2023-04-03T03:33:00;0.30;;;0.30;;
57573;SDS011;68988;49.000;21.242;2023-04-03T03:35:26;0.30;;;0.30;;
57573;SDS011;68988;49.000;21.242;2023-04-03T03:37:51;0.30;;;0.30;;
57573;SDS011;68988;49.000;21.242;2023-04-03T03:40:17;0.30;;;0.30;;
57573;SDS011;68988;49.000;21.242;2023-04-03T03:42:42;0.30;;;0.30;;
57573;SDS011;68988;49.000;21.242;2023-04-03T03:45:08;0.20;;;0.20;;
57573;SDS011;68988;49.000;21.242;2023-04-03T03:47:34;0.30;;;0.30;;
57573;SDS011;68988;49.000;21.242;2023-04-03T03:50:00;0.25;;;0.25;;
57573;SDS011;68988;49.000;21.242;2023-04-03T03:52:26;0.30;;;0.30;;
57573;SDS011;68988;49.000;21.242;2023-04-03T03:54:51;0.40;;;0.40;;
57573;SDS011;68988;49.000;21.242;2023-04-03T03:57:17;0.40;;;0.40;;
57573;SDS011;68988;49.000;21.242;2023-04-03T03:59:42;0.30;;;0.30;;
57573;SDS011;68988;49.000;21.242;2023-04-03T04:02:09;0.20;;;0.20;;
57573;SDS011;68988;49.000;21.242;2023-04-03T04:04:35;0.20;;;0.20;;
57573;SDS011;68988;49.000;21.242;2023-04-03T04:07:01;0.25;;;0.25;;
57573;SDS011;68988;49.000;21.242;2023-04-03T04:09:27;0.30;;;0.30;;
57573;SDS011;68988;49.000;21.242;2023-04-03T04:11:52;0.40;;;0.40;;
57573;SDS011;68988;49.000;21.242;2023-04-03T04:14:18;0.30;;;0.30;;
57573;SDS011;68988;49.000;21.242;2023-04-03T04:16:45;0.30;;;0.30;;
57573;SDS011;68988;49.000;21.242;2023-04-03T04:19:11;0.63;;;0.30;;
57573;SDS011;68988;49.000;21.242;2023-04-03T04:21:37;0.30;;;0.30;;
57573;SDS011;68988;49.000;21.242;2023-04-03T04:24:04;0.40;;;0.40;;
57573;SDS011;68988;49.000;21.242;2023-04-03T04:26:29;0.30;;;0.30;;
57573;SDS011;68988;49.000;21.242;2023-04-03T04:28:55;0.20;;;0.20;;
57573;SDS011;68988;49.000;21.242;2023-04-03T04:31:20;0.20;;;0.20;;
57573;SDS011;68988;49.000;21.242;2023-04-03T04:33:45;0.20;;;0.20;;
57573;SDS011;68988;49.000;21.242;2023-04-03T04:36:11;0.40;;;0.40;;
57573;SDS011;68988;49.000;21.242;2023-04-03T04:38:36;0.20;;;0.20;;
57573;SDS011;68988;49.000;21.242;2023-04-03T04:41:03;0.30;;;0.30;;
57573;SDS011;68988;49.000;21.242;2023-04-03T04:43:29;0.38;;;0.38;;
57573;SDS011;68988;49.000;21.242;2023-04-03T04:46:08;0.30;;;0.30;;
57573;SDS011;68988;49.000;21.242;2023-04-03T04:48:36;0.30;;;0.30;;
57573;SDS011;68988;49.000;21.242;2023-04-03T04:51:02;0.30;;;0.30;;
57573;SDS011;68988;49.000;21.242;2023-04-03T04:53:28;1.02;;;0.30;;
57573;SDS011;68988;49.000;21.242;2023-04-03T04:55:53;1.00;;;0.30;;
57573;SDS011;68988;49.000;21.242;2023-04-03T04:58:19;9.38;;;0.70;;
57573;SDS011;68988;49.000;21.242;2023-04-03T05:00:45;5.57;;;0.57;;
57573;SDS011;68988;49.000;21.242;2023-04-03T05:03:10;5.40;;;0.47;;
57573;SDS011;68988;49.000;21.242;2023-04-03T05:05:36;2.90;;;0.50;;
57573;SDS011;68988;49.000;21.242;2023-04-03T05:08:02;5.60;;;0.40;;
57573;SDS011;68988;49.000;21.242;2023-04-03T05:10:28;2.38;;;0.30;;
57573;SDS011;68988;49.000;21.242;2023-04-03T05:12:54;2.28;;;0.35;;
57573;SDS011;68988;49.000;21.242;2023-04-03T05:15:19;0.43;;;0.32;;
57573;SDS011;68988;49.000;21.242;2023-04-03T05:17:45;0.50;;;0.30;;
57573;SDS011;68988;49.000;21.242;2023-04-03T05:20:10;0.75;;;0.38;;
57573;SDS011;68988;49.000;21.242;2023-04-03T05:22:36;2.50;;;0.40;;
57573;SDS011;68988;49.000;21.242;2023-04-03T05:25:01;0.35;;;0.30;;
57573;SDS011;68988;49.000;21.242;2023-04-03T05:27:27;0.30;;;0.30;;
57573;SDS011;68988;49.000;21.242;2023-04-03T05:29:55;0.32;;;0.30;;
57573;SDS011;68988;49.000;21.242;2023-04-03T05:32:21;0.85;;;0.43;;
57573;SDS011;68988;49.000;21.242;2023-04-03T05:34:48;0.47;;;0.40;;
57573;SDS011;68988;49.000;21.242;2023-04-03T05:37:13;0.30;;;0.30;;
57573;SDS011;68988;49.000;21.242;2023-04-03T05:39:38;0.32;;;0.20;;
57573;SDS011;68988;49.000;21.242;2023-04-03T05:42:06;2.28;;;0.40;;
57573;SDS011;68988;49.000;21.242;2023-04-03T05:44:32;0.75;;;0.30;;
57573;SDS011;68988;49.000;21.242;2023-04-03T05:46:57;1.73;;;0.30;;
57573;SDS011;68988;49.000;21.242;2023-04-03T05:49:23;0.40;;;0.40;;
57573;SDS011;68988;49.000;21.242;2023-04-03T05:51:48;3.28;;;0.22;;
57573;SDS011;68988;49.000;21.242;2023-04-03T05:54:17;0.40;;;0.30;;
57573;SDS011;68988;49.000;21.242;2023-04-03T05:56:48;0.40;;;0.35;;
57573;SDS011;68988;49.000;21.242;2023-04-03T05:59:13;0.50;;;0.40;;
57573;SDS011;68988;49.000;21.242;2023-04-03T06:01:39;0.47;;;0.30;;
57573;SDS011;68988;49.000;21.242;2023-04-03T06:04:04;0.43;;;0.30;;
57573;SDS011;68988;49.000;21.242;2023-04-03T06:09:22;0.32;;;0.30;;
57573;SDS011;68988;49.000;21.242;2023-04-03T06:11:49;0.50;;;0.50;;
57573;SDS011;68988;49.000;21.242;2023-04-03T06:14:15;1.38;;;0.30;;
57573;SDS011;68988;49.000;21.242;2023-04-03T06:16:40;0.20;;;0.20;;
57573;SDS011;68988;49.000;21.242;2023-04-03T06:19:09;0.30;;;0.30;;
57573;SDS011;68988;49.000;21.242;2023-04-03T06:21:35;0.30;;;0.28;;
57573;SDS011;68988;49.000;21.242;2023-04-03T06:24:01;0.93;;;0.20;;
57573;SDS011;68988;49.000;21.242;2023-04-03T06:26:27;1.83;;;0.43;;
57573;SDS011;68988;49.000;21.242;2023-04-03T06:28:53;4.78;;;0.47;;
57573;SDS011;68988;49.000;21.242;2023-04-03T06:31:18;2.63;;;0.40;;
57573;SDS011;68988;49.000;21.242;2023-04-03T06:33:44;1.17;;;0.40;;
57573;SDS011;68988;49.000;21.242;2023-04-03T06:36:10;1.40;;;0.52;;
57573;SDS011;68988;49.000;21.242;2023-04-03T06:38:37;2.53;;;0.50;;
57573;SDS011;68988;49.000;21.242;2023-04-03T06:41:02;1.00;;;0.20;;
57573;SDS011;68988;49.000;21.242;2023-04-03T06:43:28;1.13;;;0.40;;
57573;SDS011;68988;49.000;21.242;2023-04-03T06:45:53;1.65;;;0.35;;
57573;SDS011;68988;49.000;21.242;2023-04-03T06:48:19;2.40;;;0.40;;
57573;SDS011;68988;49.000;21.242;2023-04-03T06:50:44;9.15;;;0.77;;
57573;SDS011;68988;49.000;21.242;2023-04-03T06:53:10;8.05;;;0.73;;
57573;SDS011;68988;49.000;21.242;2023-04-03T06:55:36;5.43;;;0.50;;
57573;SDS011;68988;49.000;21.242;2023-04-03T06:58:02;4.45;;;0.63;;
57573;SDS011;68988;49.000;21.242;2023-04-03T07:00:28;9.30;;;0.55;;
57573;SDS011;68988;49.000;21.242;2023-04-03T07:02:54;7.18;;;0.73;;
57573;SDS011;68988;49.000;21.242;2023-04-03T07:05:21;3.40;;;0.50;;
57573;SDS011;68988;49.000;21.242;2023-04-03T07:07:47;4.43;;;0.30;;
57573;SDS011;68988;49.000;21.242;2023-04-03T07:10:12;13.35;;;0.70;;
57573;SDS011;68988;49.000;21.242;2023-04-03T07:12:37;5.38;;;0.70;;
57573;SDS011;68988;49.000;21.242;2023-04-03T07:15:04;3.83;;;0.70;;
57573;SDS011;68988;49.000;21.242;2023-04-03T07:17:30;2.15;;;0.50;;
57573;SDS011;68988;49.000;21.242;2023-04-03T07:19:56;2.10;;;0.50;;
57573;SDS011;68988;49.000;21.242;2023-04-03T07:22:21;2.00;;;0.50;;
57573;SDS011;68988;49.000;21.242;2023-04-03T07:24:47;2.33;;;0.50;;
57573;SDS011;68988;49.000;21.242;2023-04-03T07:27:12;2.90;;;0.40;;
57573;SDS011;68988;49.000;21.242;2023-04-03T07:29:38;9.80;;;0.70;;
57573;SDS011;68988;49.000;21.242;2023-04-03T07:32:04;2.80;;;0.60;;
57573;SDS011;68988;49.000;21.242;2023-04-03T07:34:30;5.70;;;0.40;;
57573;SDS011;68988;49.000;21.242;2023-04-03T07:36:56;2.80;;;0.50;;
57573;SDS011;68988;49.000;21.242;2023-04-03T07:39:21;2.05;;;0.52;;
57573;SDS011;68988;49.000;21.242;2023-04-03T07:41:47;1.40;;;0.32;;
57573;SDS011;68988;49.000;21.242;2023-04-03T07:44:12;5.50;;;0.55;;
57573;SDS011;68988;49.000;21.242;2023-04-03T07:46:37;1.50;;;0.40;;
57573;SDS011;68988;49.000;21.242;2023-04-03T07:49:03;1.02;;;0.60;;
57573;SDS011;68988;49.000;21.242;2023-04-03T07:51:29;6.00;;;0.60;;
57573;SDS011;68988;49.000;21.242;2023-04-03T07:53:55;1.92;;;0.70;;
57573;SDS011;68988;49.000;21.242;2023-04-03T07:56:20;3.08;;;0.50;;
57573;SDS011;68988;49.000;21.242;2023-04-03T07:58:46;2.63;;;0.63;;
57573;SDS011;68988;49.000;21.242;2023-04-03T08:01:12;3.17;;;0.85;;
57573;SDS011;68988;49.000;21.242;2023-04-03T08:03:37;1.90;;;0.80;;
57573;SDS011;68988;49.000;21.242;2023-04-03T08:06:05;1.92;;;0.60;;
57573;SDS011;68988;49.000;21.242;2023-04-03T08:08:32;2.50;;;0.70;;
57573;SDS011;68988;49.000;21.242;2023-04-03T08:10:59;4.60;;;0.95;;
57573;SDS011;68988;49.000;21.242;2023-04-03T08:13:27;7.10;;;0.95;;
57573;SDS011;68988;49.000;21.242;2023-04-03T08:15:53;2.63;;;0.80;;
57573;SDS011;68988;49.000;21.242;2023-04-03T08:18:18;4.43;;;1.27;;
57573;SDS011;68988;49.000;21.242;2023-04-03T08:20:46;2.10;;;0.85;;
57573;SDS011;68988;49.000;21.242;2023-04-03T08:23:12;3.20;;;0.82;;
57573;SDS011;68988;49.000;21.242;2023-04-03T08:25:41;5.25;;;0.98;;
57573;SDS011;68988;49.000;21.242;2023-04-03T08:28:08;5.28;;;1.20;;
57573;SDS011;68988;49.000;21.242;2023-04-03T08:30:34;7.07;;;1.10;;
57573;SDS011;68988;49.000;21.242;2023-04-03T08:33:00;2.78;;;1.05;;
57573;SDS011;68988;49.000;21.242;2023-04-03T08:35:27;4.10;;;1.08;;
57573;SDS011;68988;49.000;21.242;2023-04-03T08:37:52;4.65;;;1.35;;
57573;SDS011;68988;49.000;21.242;2023-04-03T08:40:18;3.00;;;1.10;;
57573;SDS011;68988;49.000;21.242;2023-04-03T08:45:32;2.25;;;1.00;;
57573;SDS011;68988;49.000;21.242;2023-04-03T08:48:15;7.93;;;1.23;;
57573;SDS011;68988;49.000;21.242;2023-04-03T08:50:46;2.58;;;0.98;;
57573;SDS011;68988;49.000;21.242;2023-04-03T08:53:16;4.78;;;0.90;;
57573;SDS011;68988;49.000;21.242;2023-04-03T08:55:46;4.05;;;1.17;;
57573;SDS011;68988;49.000;21.242;2023-04-03T09:00:57;3.60;;;1.05;;
57573;SDS011;68988;49.000;21.242;2023-04-03T09:03:32;3.50;;;1.30;;
57573;SDS011;68988;49.000;21.242;2023-04-03T09:08:49;4.10;;;1.42;;
57573;SDS011;68988;49.000;21.242;2023-04-03T09:11:25;4.43;;;1.23;;
57573;SDS011;68988;49.000;21.242;2023-04-03T09:14:03;2.38;;;1.08;;
57573;SDS011;68988;49.000;21.242;2023-04-03T09:16:49;4.75;;;1.10;;
57573;SDS011;68988;49.000;21.242;2023-04-03T09:19:34;7.72;;;1.20;;
57573;SDS011;68988;49.000;21.242;2023-04-03T09:24:45;12.90;;;1.23;;
57573;SDS011;68988;49.000;21.242;2023-04-03T09:27:13;3.72;;;1.40;;
57573;SDS011;68988;49.000;21.242;2023-04-03T09:29:40;6.82;;;1.25;;
57573;SDS011;68988;49.000;21.242;2023-04-03T09:32:22;5.28;;;1.20;;
57573;SDS011;68988;49.000;21.242;2023-04-03T09:34:54;9.73;;;1.40;;
57573;SDS011;68988;49.000;21.242;2023-04-03T09:38:15;9.40;;;1.67;;
57573;SDS011;68988;49.000;21.242;2023-04-03T09:42:50;8.13;;;1.83;;
57573;SDS011;68988;49.000;21.242;2023-04-03T09:45:28;8.15;;;1.42;;
57573;SDS011;68988;49.000;21.242;2023-04-03T09:48:05;9.85;;;1.42;;
57573;SDS011;68988;49.000;21.242;2023-04-03T09:50:57;12.10;;;1.50;;
57573;SDS011;68988;49.000;21.242;2023-04-03T09:53:45;8.80;;;1.65;;
57573;SDS011;68988;49.000;21.242;2023-04-03T09:58:39;10.60;;;1.75;;
57573;SDS011;68988;49.000;21.242;2023-04-03T10:01:08;16.15;;;1.38;;
57573;SDS011;68988;49.000;21.242;2023-04-03T10:06:38;6.13;;;1.42;;
57573;SDS011;68988;49.000;21.242;2023-04-03T10:09:18;4.35;;;1.45;;
57573;SDS011;68988;49.000;21.242;2023-04-03T10:14:59;7.28;;;1.55;;
57573;SDS011;68988;49.000;21.242;2023-04-03T10:23:17;8.63;;;1.88;;
57573;SDS011;68988;49.000;21.242;2023-04-03T10:56:09;5.40;;;1.35;;
57573;SDS011;68988;49.000;21.242;2023-04-03T10:58:40;7.82;;;1.45;;
57573;SDS011;68988;49.000;21.242;2023-04-03T11:01:11;14.00;;;1.65;;
57573;SDS011;68988;49.000;21.242;2023-04-03T11:03:45;14.75;;;1.75;;
57573;SDS011;68988;49.000;21.242;2023-04-03T11:06:15;8.35;;;1.40;;
57573;SDS011;68988;49.000;21.242;2023-04-03T11:08:47;7.97;;;1.42;;
57573;SDS011;68988;49.000;21.242;2023-04-03T11:11:17;6.38;;;1.65;;
57573;SDS011;68988;49.000;21.242;2023-04-03T11:14:03;4.43;;;1.50;;
57573;SDS011;68988;49.000;21.242;2023-04-03T11:16:39;5.45;;;2.33;;
57573;SDS011;68988;49.000;21.242;2023-04-03T11:19:16;9.85;;;2.00;;
57573;SDS011;68988;49.000;21.242;2023-04-03T11:24:25;9.43;;;1.60;;
57573;SDS011;68988;49.000;21.242;2023-04-03T11:26:53;6.85;;;1.52;;
57573;SDS011;68988;49.000;21.242;2023-04-03T11:29:22;6.75;;;1.40;;
57573;SDS011;68988;49.000;21.242;2023-04-03T11:32:55;3.05;;;1.48;;
57573;SDS011;68988;49.000;21.242;2023-04-03T11:34:50;4.82;;;1.42;;
57573;SDS011;68988;49.000;21.242;2023-04-03T11:40:06;9.43;;;1.52;;
57573;SDS011;68988;49.000;21.242;2023-04-03T11:42:48;5.63;;;1.60;;
57573;SDS011;68988;49.000;21.242;2023-04-03T11:47:48;9.02;;;1.70;;
57573;SDS011;68988;49.000;21.242;2023-04-03T11:53:45;2.30;;;1.55;;
57573;SDS011;68988;49.000;21.242;2023-04-03T11:58:23;2.47;;;1.58;;
57573;SDS011;68988;49.000;21.242;2023-04-03T12:00:54;4.57;;;1.65;;
57573;SDS011;68988;49.000;21.242;2023-04-03T12:16:22;13.15;;;1.60;;
57573;SDS011;68988;49.000;21.242;2023-04-03T12:21:20;4.65;;;1.73;;
57573;SDS011;68988;49.000;21.242;2023-04-03T12:31:52;5.75;;;1.42;;
57573;SDS011;68988;49.000;21.242;2023-04-03T12:40:03;3.20;;;1.25;;
57573;SDS011;68988;49.000;21.242;2023-04-03T12:45:20;10.95;;;1.30;;
57573;SDS011;68988;49.000;21.242;2023-04-03T12:47:51;4.75;;;1.30;;
57573;SDS011;68988;49.000;21.242;2023-04-03T12:55:42;4.30;;;1.42;;
57573;SDS011;68988;49.000;21.242;2023-04-03T12:58:14;4.80;;;1.60;;
57573;SDS011;68988;49.000;21.242;2023-04-03T13:00:41;3.70;;;1.40;;
57573;SDS011;68988;49.000;21.242;2023-04-03T13:03:06;6.30;;;1.10;;
57573;SDS011;68988;49.000;21.242;2023-04-03T13:05:47;2.67;;;1.27;;
57573;SDS011;68988;49.000;21.242;2023-04-03T13:08:13;3.88;;;1.15;;
57573;SDS011;68988;49.000;21.242;2023-04-03T13:11:00;8.43;;;1.75;;
57573;SDS011;68988;49.000;21.242;2023-04-03T13:13:28;4.00;;;1.63;;
57573;SDS011;68988;49.000;21.242;2023-04-03T13:15:55;3.90;;;1.40;;
57573;SDS011;68988;49.000;21.242;2023-04-03T13:18:42;14.93;;;1.77;;
57573;SDS011;68988;49.000;21.242;2023-04-03T13:21:13;8.45;;;1.65;;
57573;SDS011;68988;49.000;21.242;2023-04-03T13:23:43;5.82;;;1.27;;
57573;SDS011;68988;49.000;21.242;2023-04-03T13:26:11;10.45;;;1.20;;
57573;SDS011;68988;49.000;21.242;2023-04-03T13:28:40;4.28;;;1.08;;
57573;SDS011;68988;49.000;21.242;2023-04-03T13:36:35;5.03;;;1.33;;
57573;SDS011;68988;49.000;21.242;2023-04-03T13:41:39;7.82;;;1.60;;
57573;SDS011;68988;49.000;21.242;2023-04-03T13:46:41;3.20;;;1.15;;
57573;SDS011;68988;49.000;21.242;2023-04-03T13:55:00;5.20;;;1.45;;
57573;SDS011;68988;49.000;21.242;2023-04-03T13:57:28;3.72;;;1.13;;
57573;SDS011;68988;49.000;21.242;2023-04-03T13:59:53;4.47;;;1.45;;
57573;SDS011;68988;49.000;21.242;2023-04-03T14:04:57;3.53;;;1.60;;
57573;SDS011;68988;49.000;21.242;2023-04-03T14:07:26;5.82;;;1.33;;
57573;SDS011;68988;49.000;21.242;2023-04-03T14:09:54;3.25;;;1.30;;
57573;SDS011;68988;49.000;21.242;2023-04-03T14:14:45;4.07;;;1.38;;
57573;SDS011;68988;49.000;21.242;2023-04-03T14:17:16;9.48;;;1.60;;
57573;SDS011;68988;49.000;21.242;2023-04-03T14:19:43;13.20;;;1.67;;
57573;SDS011;68988;49.000;21.242;2023-04-03T14:22:15;5.38;;;1.33;;
57573;SDS011;68988;49.000;21.242;2023-04-03T14:25:00;4.40;;;1.40;;
57573;SDS011;68988;49.000;21.242;2023-04-03T14:27:31;5.70;;;1.60;;
57573;SDS011;68988;49.000;21.242;2023-04-03T14:30:00;7.43;;;1.23;;
57573;SDS011;68988;49.000;21.242;2023-04-03T14:32:28;5.03;;;1.70;;
57573;SDS011;68988;49.000;21.242;2023-04-03T14:34:53;4.38;;;1.70;;
57573;SDS011;68988;49.000;21.242;2023-04-03T14:37:21;9.73;;;2.08;;
57573;SDS011;68988;49.000;21.242;2023-04-03T14:39:49;8.60;;;1.33;;
57573;SDS011;68988;49.000;21.242;2023-04-03T14:42:17;2.63;;;1.40;;
57573;SDS011;68988;49.000;21.242;2023-04-03T14:44:48;5.55;;;1.75;;
57573;SDS011;68988;49.000;21.242;2023-04-03T14:47:16;5.88;;;1.38;;
57573;SDS011;68988;49.000;21.242;2023-04-03T14:49:46;11.57;;;1.52;;
57573;SDS011;68988;49.000;21.242;2023-04-03T14:52:33;3.92;;;1.60;;
57573;SDS011;68988;49.000;21.242;2023-04-03T14:54:59;6.45;;;1.83;;
57573;SDS011;68988;49.000;21.242;2023-04-03T14:57:27;8.10;;;1.60;;
57573;SDS011;68988;49.000;21.242;2023-04-03T14:59:53;8.98;;;1.33;;
57573;SDS011;68988;49.000;21.242;2023-04-03T15:05:02;5.65;;;1.45;;
57573;SDS011;68988;49.000;21.242;2023-04-03T15:07:30;2.30;;;1.30;;
57573;SDS011;68988;49.000;21.242;2023-04-03T15:12:44;4.00;;;1.38;;
57573;SDS011;68988;49.000;21.242;2023-04-03T15:15:10;8.00;;;1.40;;
57573;SDS011;68988;49.000;21.242;2023-04-03T15:17:36;7.95;;;1.85;;
57573;SDS011;68988;49.000;21.242;2023-04-03T15:20:02;3.97;;;1.60;;
57573;SDS011;68988;49.000;21.242;2023-04-03T15:22:28;3.53;;;1.50;;
57573;SDS011;68988;49.000;21.242;2023-04-03T15:24:53;3.65;;;1.55;;
57573;SDS011;68988;49.000;21.242;2023-04-03T15:27:19;2.80;;;1.73;;
57573;SDS011;68988;49.000;21.242;2023-04-03T15:29:44;5.22;;;1.42;;
57573;SDS011;68988;49.000;21.242;2023-04-03T15:32:11;5.75;;;1.60;;
57573;SDS011;68988;49.000;21.242;2023-04-03T15:34:37;2.83;;;1.85;;
57573;SDS011;68988;49.000;21.242;2023-04-03T15:37:03;4.18;;;1.95;;
57573;SDS011;68988;49.000;21.242;2023-04-03T15:39:28;6.25;;;1.30;;
57573;SDS011;68988;49.000;21.242;2023-04-03T15:41:54;2.90;;;1.40;;
57573;SDS011;68988;49.000;21.242;2023-04-03T15:44:20;1.92;;;1.30;;
57573;SDS011;68988;49.000;21.242;2023-04-03T15:46:46;1.55;;;1.20;;
57573;SDS011;68988;49.000;21.242;2023-04-03T15:49:13;3.75;;;1.40;;
57573;SDS011;68988;49.000;21.242;2023-04-03T15:51:39;4.97;;;1.30;;
57573;SDS011;68988;49.000;21.242;2023-04-03T15:54:05;1.50;;;1.40;;
57573;SDS011;68988;49.000;21.242;2023-04-03T15:56:30;2.33;;;1.50;;
57573;SDS011;68988;49.000;21.242;2023-04-03T15:58:56;3.00;;;1.35;;
57573;SDS011;68988;49.000;21.242;2023-04-03T16:01:21;2.55;;;1.33;;
57573;SDS011;68988;49.000;21.242;2023-04-03T16:03:47;2.72;;;1.20;;
57573;SDS011;68988;49.000;21.242;2023-04-03T16:06:13;5.82;;;1.52;;
57573;SDS011;68988;49.000;21.242;2023-04-03T16:08:40;3.03;;;1.40;;
57573;SDS011;68988;49.000;21.242;2023-04-03T16:11:06;2.40;;;1.40;;
57573;SDS011;68988;49.000;21.242;2023-04-03T16:13:31;2.53;;;1.30;;
57573;SDS011;68988;49.000;21.242;2023-04-03T16:15:58;2.85;;;1.40;;
57573;SDS011;68988;49.000;21.242;2023-04-03T16:18:25;2.67;;;1.50;;
57573;SDS011;68988;49.000;21.242;2023-04-03T16:20:51;4.63;;;1.38;;
57573;SDS011;68988;49.000;21.242;2023-04-03T16:23:17;3.95;;;1.40;;
57573;SDS011;68988;49.000;21.242;2023-04-03T16:25:43;2.05;;;1.33;;
57573;SDS011;68988;49.000;21.242;2023-04-03T16:28:11;1.85;;;1.55;;
57573;SDS011;68988;49.000;21.242;2023-04-03T16:30:38;1.73;;;1.30;;
57573;SDS011;68988;49.000;21.242;2023-04-03T16:33:08;3.88;;;1.50;;
57573;SDS011;68988;49.000;21.242;2023-04-03T16:35:34;3.30;;;1.33;;
57573;SDS011;68988;49.000;21.242;2023-04-03T16:37:59;2.28;;;1.55;;
57573;SDS011;68988;49.000;21.242;2023-04-03T16:40:25;1.27;;;1.17;;
57573;SDS011;68988;49.000;21.242;2023-04-03T16:42:50;1.83;;;1.15;;
57573;SDS011;68988;49.000;21.242;2023-04-03T16:45:16;2.58;;;1.55;;
57573;SDS011;68988;49.000;21.242;2023-04-03T16:47:41;1.58;;;1.48;;
57573;SDS011;68988;49.000;21.242;2023-04-03T16:50:07;2.25;;;1.60;;
57573;SDS011;68988;49.000;21.242;2023-04-03T16:52:33;2.08;;;1.40;;
57573;SDS011;68988;49.000;21.242;2023-04-03T16:54:58;3.42;;;1.50;;
57573;SDS011;68988;49.000;21.242;2023-04-03T16:57:24;1.65;;;1.00;;
57573;SDS011;68988;49.000;21.242;2023-04-03T16:59:50;1.75;;;1.45;;
57573;SDS011;68988;49.000;21.242;2023-04-03T17:02:16;3.03;;;1.58;;